Time;durP1;ratioP1;P1;durP2;ratioP2;P2;SDS_P1;SDS_P2;PMS_P1;PMS_P2;Temp;Humidity;BMP_temperature;BMP_pressure;BME280_temperature;BME280_humidity;BME280_pressure;Samples;Min_cycle;Max_cycle;Signal;HPM_P1;HPM_P2
2023/08/09 00:00:02;;;;;;;2.60;2.40;;;;;;;14.07;69.70;93693.47;513488;28;856;-46
2023/08/09 00:00:17;;;;;;;2.88;2.60;;;;;;;14.21;69.88;93712.03;513603;28;823;-46
2023/08/09 00:00:32;;;;;;;2.97;2.50;;;;;;;14.21;69.72;93711.31;513629;28;836;-46
2023/08/09 00:00:48;;;;;;;2.47;2.30;;;;;;;14.21;69.72;93714.81;513681;28;860;-44
2023/08/09 00:01:03;;;;;;;2.60;2.40;;;;;;;14.20;69.64;93709.84;513549;28;886;-45
2023/08/09 00:01:19;;;;;;;2.70;2.50;;;;;;;14.16;69.51;93710.22;513168;28;1870;-45
2023/08/09 00:01:34;;;;;;;2.88;2.65;;;;;;;14.15;69.41;93699.69;513517;28;872;-46
2023/08/09 00:01:50;;;;;;;2.70;2.50;;;;;;;14.20;69.45;93709.84;513695;28;826;-46
2023/08/09 00:02:05;;;;;;;2.40;2.20;;;;;;;14.19;69.46;93714.66;513761;28;1119;-46
2023/08/09 00:02:20;;;;;;;2.57;2.37;;;;;;;14.19;69.28;93711.13;513773;28;769;-45
2023/08/09 00:02:36;;;;;;;2.60;2.40;;;;;;;14.19;69.24;93708.34;513784;28;815;-46
2023/08/09 00:02:51;;;;;;;2.50;2.30;;;;;;;14.19;69.46;93705.56;513770;28;1166;-46
2023/08/09 00:03:07;;;;;;;2.60;2.40;;;;;;;14.17;69.59;93710.97;513768;28;747;-46
2023/08/09 00:03:22;;;;;;;3.47;2.38;;;;;;;14.17;69.69;93713.75;513780;28;874;-46
2023/08/09 00:03:38;;;;;;;3.43;2.40;;;;;;;14.16;69.66;93715.78;513672;28;907;-46
2023/08/09 00:03:54;;;;;;;2.72;2.53;;;;;;;14.18;69.68;93706.91;513793;28;825;-46
2023/08/09 00:04:09;;;;;;;2.70;2.50;;;;;;;14.17;69.68;93717.25;512163;28;1671;-46
2023/08/09 00:04:25;;;;;;;2.90;2.70;;;;;;;14.19;69.78;93716.69;513470;28;896;-46
2023/08/09 00:04:40;;;;;;;2.80;2.60;;;;;;;14.18;69.66;93710.41;513573;28;1403;-45
2023/08/09 00:04:55;;;;;;;2.50;2.30;;;;;;;14.19;69.74;93713.91;513657;28;942;-45
2023/08/09 00:05:11;;;;;;;2.50;2.30;;;;;;;14.19;69.55;93714.66;512140;28;868;-46
2023/08/09 00:05:27;;;;;;;2.33;2.22;;;;;;;14.20;69.79;93712.63;511706;28;1484;-46
2023/08/09 00:05:42;;;;;;;2.60;2.40;;;;;;;14.20;69.75;93709.84;513705;28;1580;-47
2023/08/09 00:05:57;;;;;;;2.78;2.58;;;;;;;14.18;69.72;93706.91;513663;28;904;-46
2023/08/09 00:06:13;;;;;;;2.60;2.40;;;;;;;14.19;69.74;93703.53;512181;28;808;-46
2023/08/09 00:06:28;;;;;;;2.63;2.42;;;;;;;14.19;70.02;93713.91;512203;28;1969;-47
2023/08/09 00:06:44;;;;;;;2.63;2.43;;;;;;;14.20;69.91;93709.84;513534;28;757;-45
2023/08/09 00:06:59;;;;;;;2.80;2.53;;;;;;;14.22;70.12;93710.00;513663;28;848;-47
2023/08/09 00:07:14;;;;;;;2.88;2.65;;;;;;;14.21;70.31;93706.50;513733;28;1290;-45
2023/08/09 00:07:30;;;;;;;2.73;2.53;;;;;;;14.23;70.37;93708.69;513504;28;1367;-46
2023/08/09 00:07:45;;;;;;;2.47;2.27;;;;;;;14.10;70.35;93695.09;513703;28;874;-46
2023/08/09 00:08:01;;;;;;;2.58;2.38;;;;;;;14.24;70.08;93710.91;513770;28;812;-47
2023/08/09 00:08:16;;;;;;;2.53;2.33;;;;;;;14.25;70.23;93704.03;513820;28;1080;-46
2023/08/09 00:08:31;;;;;;;2.50;2.30;;;;;;;14.25;70.11;93708.88;513443;28;875;-46
2023/08/09 00:08:47;;;;;;;2.77;2.57;;;;;;;14.25;69.89;93703.34;513177;28;1707;-47
2023/08/09 00:09:02;;;;;;;2.70;2.50;;;;;;;14.24;69.90;93702.59;513547;28;994;-48
2023/08/09 00:09:20;;;;;;;2.50;2.30;;;;;;;14.25;69.61;93712.38;513522;28;802;-46
2023/08/09 00:09:35;;;;;;;2.60;2.40;;;;;;;14.24;69.64;93708.16;513395;28;961;-46
2023/08/09 00:09:51;;;;;;;2.42;2.33;;;;;;;14.26;69.69;93704.78;513423;28;910;-48
2023/08/09 00:10:06;;;;;;;2.60;2.40;;;;;;;14.27;69.77;93709.06;513521;28;902;-46
2023/08/09 00:10:22;;;;;;;2.78;2.58;;;;;;;14.26;69.51;93708.31;513438;28;1035;-45
2023/08/09 00:10:37;;;;;;;2.50;2.30;;;;;;;14.26;69.70;93702.75;513588;28;832;-46
2023/08/09 00:10:52;;;;;;;2.42;2.22;;;;;;;14.26;69.70;93710.34;512023;28;832;-46
2023/08/09 00:11:08;;;;;;;2.70;2.50;;;;;;;14.25;69.75;93703.34;511604;28;946;-46
2023/08/09 00:11:23;;;;;;;2.67;2.47;;;;;;;14.25;69.67;93706.81;511765;28;919;-46
2023/08/09 00:11:39;;;;;;;2.65;2.45;;;;;;;14.25;69.67;93703.34;513578;28;904;-47
2023/08/09 00:11:54;;;;;;;2.70;2.50;;;;;;;14.25;69.69;93704.03;512160;28;1228;-46
2023/08/09 00:12:10;;;;;;;2.53;2.33;;;;;;;14.23;69.63;93705.91;513377;28;852;-46
2023/08/09 00:12:25;;;;;;;2.47;2.27;;;;;;;14.25;69.61;93708.88;513669;28;855;-46
2023/08/09 00:12:40;;;;;;;2.50;2.30;;;;;;;14.24;69.41;93710.91;513698;28;1089;-48
2023/08/09 00:12:56;;;;;;;2.70;2.50;;;;;;;14.24;69.28;93699.06;513670;28;872;-46
2023/08/09 00:13:12;;;;;;;2.80;2.60;;;;;;;14.24;69.30;93701.84;513602;28;792;-46
2023/08/09 00:13:28;;;;;;;2.70;2.50;;;;;;;14.18;69.25;93696.53;512831;28;997;-47
2023/08/09 00:13:44;;;;;;;2.80;2.60;;;;;;;14.24;68.81;93704.63;511604;28;822;-46
2023/08/09 00:13:59;;;;;;;2.87;2.67;;;;;;;14.22;68.79;93696.13;511731;28;914;-45
2023/08/09 00:14:15;;;;;;;2.70;2.50;;;;;;;14.22;68.86;93704.47;511668;28;1013;-46
2023/08/09 00:14:30;;;;;;;2.70;2.37;;;;;;;14.23;68.71;93708.69;513480;28;874;-46
2023/08/09 00:14:45;;;;;;;3.03;2.40;;;;;;;14.21;68.74;93702.97;513798;28;867;-45
2023/08/09 00:15:01;;;;;;;2.58;2.28;;;;;;;14.20;68.75;93705.03;513719;28;1163;-46
2023/08/09 00:15:16;;;;;;;2.33;2.13;;;;;;;14.20;68.77;93702.25;513916;28;810;-45
2023/08/09 00:15:32;;;;;;;2.53;2.33;;;;;;;14.21;68.79;93708.53;513704;28;903;-45
2023/08/09 00:15:48;;;;;;;2.70;2.50;;;;;;;14.21;68.77;93702.97;513856;28;808;-46
2023/08/09 00:16:03;;;;;;;2.60;2.40;;;;;;;14.21;68.81;93708.53;513774;28;827;-46
2023/08/09 00:16:19;;;;;;;2.70;2.50;;;;;;;14.20;68.93;93705.03;513771;28;864;-46
2023/08/09 00:16:34;;;;;;;2.80;2.60;;;;;;;14.20;68.98;93712.63;513644;28;1182;-46
2023/08/09 00:16:49;;;;;;;2.90;2.70;;;;;;;14.19;68.88;93706.31;513755;28;884;-46
2023/08/09 00:17:05;;;;;;;2.70;2.50;;;;;;;14.17;68.67;93702.63;513723;28;879;-47
2023/08/09 00:17:20;;;;;;;2.70;2.50;;;;;;;14.19;68.73;93708.34;513838;28;815;-45
2023/08/09 00:17:36;;;;;;;2.43;2.23;;;;;;;14.03;68.84;93684.78;513475;28;1640;-46
2023/08/09 00:17:51;;;;;;;2.60;2.40;;;;;;;14.18;68.87;93707.63;513064;28;977;-45
2023/08/09 00:18:07;;;;;;;2.90;2.70;;;;;;;14.17;68.82;93706.16;513811;28;923;-45
2023/08/09 00:18:23;;;;;;;2.70;2.50;;;;;;;14.18;68.85;93704.88;513823;28;887;-46
2023/08/09 00:18:38;;;;;;;2.67;2.47;;;;;;;14.18;69.02;93709.66;513780;28;801;-45
2023/08/09 00:18:53;;;;;;;2.78;2.58;;;;;;;14.18;69.11;93707.63;513800;28;808;-45
2023/08/09 00:19:09;;;;;;;2.87;2.67;;;;;;;14.16;69.27;93703.94;513778;28;888;-45
2023/08/09 00:19:24;;;;;;;2.95;2.55;;;;;;;14.18;69.17;93707.63;513770;28;1131;-47
2023/08/09 00:19:40;;;;;;;3.10;2.50;;;;;;;14.17;69.13;93706.16;511790;28;871;-46
2023/08/09 00:19:56;;;;;;;2.77;2.57;;;;;;;14.04;69.09;93694.56;513458;28;923;-45
2023/08/09 00:20:12;;;;;;;2.90;2.70;;;;;;;14.16;69.24;93706.72;513725;28;832;-46
2023/08/09 00:20:28;;;;;;;2.90;2.70;;;;;;;14.16;69.11;93709.50;513131;28;1707;-46
2023/08/09 00:20:44;;;;;;;2.75;2.55;;;;;;;14.15;69.05;93708.75;513870;28;925;-46
2023/08/09 00:21:00;;;;;;;2.80;2.60;;;;;;;14.15;68.94;93708.00;513132;28;1539;-45
2023/08/09 00:21:15;;;;;;;2.90;2.70;;;;;;;13.96;68.68;93677.25;513695;28;1071;-46
2023/08/09 00:21:31;;;;;;;2.90;2.70;;;;;;;14.13;68.65;93705.06;513758;28;777;-46
2023/08/09 00:21:47;;;;;;;2.53;2.33;;;;;;;14.07;68.50;93699.00;513776;28;781;-45
2023/08/09 00:22:02;;;;;;;2.40;2.20;;;;;;;14.11;68.32;93700.09;513807;28;828;-46
2023/08/09 00:22:17;;;;;;;2.70;2.50;;;;;;;14.12;68.28;93709.16;513792;28;824;-45
2023/08/09 00:22:33;;;;;;;2.77;2.57;;;;;;;14.11;68.24;93702.88;515513;28;1100;-45
2023/08/09 00:22:49;;;;;;;2.60;2.40;;;;;;;14.04;68.17;93700.13;515694;28;1072;-46
2023/08/09 00:23:04;;;;;;;2.42;2.28;;;;;;;14.10;68.24;93706.19;515551;28;1153;-46
2023/08/09 00:23:21;;;;;;;2.30;2.20;;;;;;;14.10;68.12;93706.94;515622;28;895;-46
2023/08/09 00:23:36;;;;;;;2.65;2.45;;;;;;;14.08;68.17;93709.53;515598;28;806;-46
2023/08/09 00:23:52;;;;;;;2.70;2.50;;;;;;;14.09;68.52;93704.72;515527;28;804;-45
2023/08/09 00:24:07;;;;;;;2.63;2.43;;;;;;;14.09;68.58;93715.84;514744;28;1686;-45
2023/08/09 00:24:22;;;;;;;2.60;2.40;;;;;;;14.08;68.62;93709.53;513186;28;816;-46
2023/08/09 00:24:38;;;;;;;2.50;2.30;;;;;;;14.00;68.68;93700.53;513593;28;932;-45
2023/08/09 00:24:53;;;;;;;2.63;2.43;;;;;;;14.06;68.83;93703.06;513789;28;1046;-45
2023/08/09 00:25:13;;;;;;;2.60;2.40;;;;;;;14.06;68.91;93714.19;512950;28;841;-46
2023/08/09 00:25:28;;;;;;;2.28;2.17;;;;;;;14.05;68.92;93710.69;512775;28;974;-45
2023/08/09 00:25:43;;;;;;;2.40;2.20;;;;;;;14.04;68.88;93709.19;513890;28;878;-46
2023/08/09 00:26:00;;;;;;;2.50;2.30;;;;;;;14.00;68.77;93702.56;513950;28;892;-46
2023/08/09 00:26:15;;;;;;;2.60;2.40;;;;;;;14.01;68.77;93704.06;513693;28;887;-45
2023/08/09 00:26:31;;;;;;;2.50;2.30;;;;;;;14.02;68.77;93711.06;513716;28;1930;-45
2023/08/09 00:26:46;;;;;;;2.40;2.20;;;;;;;14.02;68.85;93708.28;513721;28;860;-45
2023/08/09 00:27:02;;;;;;;2.60;2.40;;;;;;;14.01;69.00;93709.59;513792;28;857;-46
2023/08/09 00:27:17;;;;;;;2.60;2.40;;;;;;;13.98;69.09;93705.16;513700;28;923;-46
2023/08/09 00:27:33;;;;;;;2.77;2.57;;;;;;;13.98;69.19;93705.91;513767;28;899;-45
2023/08/09 00:27:48;;;;;;;2.90;2.67;;;;;;;13.98;69.16;93703.13;513790;28;809;-44
2023/08/09 00:28:04;;;;;;;2.30;2.10;;;;;;;13.99;69.62;93701.09;513803;28;824;-45
2023/08/09 00:28:19;;;;;;;2.20;2.10;;;;;;;13.94;69.29;93696.50;513917;28;882;-45
2023/08/09 00:28:35;;;;;;;2.30;2.20;;;;;;;13.84;68.99;93684.56;512805;28;1441;-45
2023/08/09 00:28:50;;;;;;;2.42;2.22;;;;;;;13.98;68.92;93707.94;513549;28;936;-45
2023/08/09 00:29:06;;;;;;;2.57;2.37;;;;;;;13.97;68.89;93704.44;512293;28;924;-45
2023/08/09 00:29:22;;;;;;;2.50;2.30;;;;;;;13.97;68.72;93698.88;511953;28;871;-45
2023/08/09 00:29:38;;;;;;;2.60;2.40;;;;;;;13.97;68.37;93703.72;513819;28;1088;-45
2023/08/09 00:29:54;;;;;;;2.70;2.50;;;;;;;13.96;68.64;93711.28;513852;28;1096;-46
2023/08/09 00:30:10;;;;;;;2.58;2.38;;;;;;;13.95;68.80;93703.50;513923;28;892;-45
2023/08/09 00:30:26;;;;;;;2.35;2.20;;;;;;;13.94;69.01;93705.56;513857;28;1046;-46
2023/08/09 00:30:41;;;;;;;2.92;2.28;;;;;;;13.95;69.08;93706.28;513896;28;1061;-47
2023/08/09 00:30:57;;;;;;;3.20;2.30;;;;;;;13.95;69.15;93709.06;513892;28;887;-45
2023/08/09 00:31:13;;;;;;;2.58;2.38;;;;;;;13.93;69.01;93704.09;512802;28;1687;-45
2023/08/09 00:31:28;;;;;;;2.67;2.47;;;;;;;13.93;69.01;93701.31;513115;28;913;-47
2023/08/09 00:31:44;;;;;;;2.67;2.47;;;;;;;13.91;69.15;93701.13;513814;28;919;-47
2023/08/09 00:31:59;;;;;;;2.63;2.43;;;;;;;13.93;69.00;93703.34;513947;28;1603;-45
2023/08/09 00:32:15;;;;;;;2.70;2.50;;;;;;;13.91;69.08;93703.91;512641;28;831;-45
2023/08/09 00:32:30;;;;;;;3.28;2.78;;;;;;;13.90;69.02;93705.22;513041;28;907;-46
2023/08/09 00:32:46;;;;;;;2.80;2.60;;;;;;;13.90;68.95;93710.03;513893;28;1628;-45
2023/08/09 00:33:03;;;;;;;2.47;2.27;;;;;;;13.90;68.98;93699.69;513876;28;1127;-45
2023/08/09 00:33:18;;;;;;;3.17;2.20;;;;;;;13.88;68.97;93702.25;513905;28;866;-45
2023/08/09 00:33:34;;;;;;;3.23;2.47;;;;;;;13.88;69.09;93702.25;513899;28;871;-44
2023/08/09 00:33:49;;;;;;;3.40;2.60;;;;;;;13.87;69.25;93700.78;513937;28;787;-46
2023/08/09 00:34:06;;;;;;;3.63;2.65;;;;;;;13.88;69.27;93704.31;513239;28;1751;-46
2023/08/09 00:34:21;;;;;;;2.88;2.67;;;;;;;13.88;69.29;93702.25;512906;28;876;-44
2023/08/09 00:34:37;;;;;;;2.80;2.60;;;;;;;13.87;69.25;93700.06;513825;28;832;-46
2023/08/09 00:34:52;;;;;;;2.83;2.60;;;;;;;13.88;69.46;93704.31;513952;28;984;-45
2023/08/09 00:35:11;;;;;;;4.13;2.57;;;;;;;13.79;69.09;93685.50;513212;28;953;-45
2023/08/09 00:35:26;;;;;;;3.90;2.33;;;;;;;13.69;69.25;93677.78;512410;28;1057;-45
2023/08/09 00:35:42;;;;;;;2.40;2.20;;;;;;;13.85;69.28;93697.09;513985;28;809;-47
2023/08/09 00:35:57;;;;;;;2.67;2.47;;;;;;;13.86;69.15;93704.88;513927;28;859;-46
2023/08/09 00:36:13;;;;;;;2.70;2.50;;;;;;;13.86;69.14;93704.16;513908;28;909;-46
2023/08/09 00:36:28;;;;;;;2.43;2.23;;;;;;;13.85;69.19;93702.66;513790;28;876;-44
2023/08/09 00:36:43;;;;;;;2.37;2.27;;;;;;;13.71;69.25;93679.25;513285;28;1766;-45
2023/08/09 00:36:59;;;;;;;2.80;2.50;;;;;;;13.85;69.26;93702.66;512747;28;882;-45
2023/08/09 00:37:14;;;;;;;3.20;2.60;;;;;;;13.84;69.28;93698.44;513287;28;841;-46
2023/08/09 00:37:30;;;;;;;2.70;2.50;;;;;;;13.84;69.31;93701.19;512966;28;1270;-47
2023/08/09 00:37:45;;;;;;;2.73;2.53;;;;;;;13.69;69.35;93675.00;513875;28;856;-47
2023/08/09 00:38:01;;;;;;;2.75;2.55;;;;;;;13.83;69.30;93696.94;513939;28;955;-45
2023/08/09 00:38:17;;;;;;;2.90;2.70;;;;;;;13.83;69.46;93703.22;513893;28;1632;-45
2023/08/09 00:38:32;;;;;;;2.85;2.65;;;;;;;13.81;69.58;93697.50;513897;28;858;-45
2023/08/09 00:38:47;;;;;;;2.60;2.40;;;;;;;13.83;69.43;93699.72;513909;28;757;-45
2023/08/09 00:39:05;;;;;;;2.40;2.25;;;;;;;13.82;69.47;93695.47;513803;28;1115;-45
2023/08/09 00:39:21;;;;;;;2.30;2.15;;;;;;;13.77;69.36;93699.19;513957;28;937;-45
2023/08/09 00:39:36;;;;;;;2.50;2.30;;;;;;;13.81;69.14;93700.28;513864;28;836;-46
2023/08/09 00:39:51;;;;;;;2.60;2.40;;;;;;;13.80;69.15;93689.72;513878;28;907;-46
2023/08/09 00:40:07;;;;;;;2.40;2.20;;;;;;;13.81;68.88;93697.50;513978;28;818;-47
2023/08/09 00:40:23;;;;;;;2.30;2.10;;;;;;;13.80;68.79;93698.81;513782;28;1171;-47
2023/08/09 00:40:38;;;;;;;2.47;2.28;;;;;;;13.79;68.86;93688.28;513929;28;936;-45
2023/08/09 00:40:54;;;;;;;2.70;2.50;;;;;;;13.79;68.93;93694.56;513910;28;915;-46
2023/08/09 00:41:09;;;;;;;2.63;2.42;;;;;;;13.78;69.14;93697.88;513158;28;1715;-47
2023/08/09 00:41:24;;;;;;;2.50;2.30;;;;;;;13.79;69.24;93700.13;512724;28;795;-46
2023/08/09 00:41:41;;;;;;;2.40;2.30;;;;;;;13.76;69.15;93695.69;513884;28;793;-46
2023/08/09 00:41:56;;;;;;;2.30;2.20;;;;;;;13.78;69.45;93697.88;513782;28;1155;-48
2023/08/09 00:42:12;;;;;;;2.47;2.30;;;;;;;13.78;69.51;93697.88;513897;28;1657;-46
2023/08/09 00:42:27;;;;;;;2.60;2.40;;;;;;;13.76;69.55;93692.91;513874;28;871;-46
2023/08/09 00:42:43;;;;;;;2.63;2.43;;;;;;;13.78;69.47;93697.88;513971;28;757;-45
2023/08/09 00:42:58;;;;;;;2.60;2.40;;;;;;;13.78;69.69;93700.66;513889;28;902;-46
2023/08/09 00:43:14;;;;;;;2.53;2.33;;;;;;;13.77;69.74;93691.63;513941;28;785;-46
2023/08/09 00:43:29;;;;;;;2.70;2.50;;;;;;;13.76;69.71;93692.16;513738;28;966;-47
2023/08/09 00:43:45;;;;;;;2.80;2.60;;;;;;;13.77;69.50;93696.44;513868;28;785;-45
2023/08/09 00:44:02;;;;;;;2.65;2.45;;;;;;;13.76;69.50;93694.94;513565;28;1715;-46
2023/08/09 00:44:17;;;;;;;2.60;2.40;;;;;;;13.77;69.40;93696.44;514492;28;946;-46
2023/08/09 00:44:32;;;;;;;2.42;2.22;;;;;;;13.76;69.62;93697.72;515673;28;911;-47
2023/08/09 00:44:48;;;;;;;2.40;2.20;;;;;;;13.68;69.59;93684.63;513697;28;839;-46
2023/08/09 00:45:04;;;;;;;2.83;2.63;;;;;;;13.75;69.36;93694.22;513563;28;1174;-45
2023/08/09 00:45:20;;;;;;;2.88;2.63;;;;;;;13.74;69.41;93698.28;513793;28;882;-46
2023/08/09 00:45:36;;;;;;;2.77;2.57;;;;;;;13.74;69.38;93695.50;513647;28;867;-46
2023/08/09 00:45:52;;;;;;;3.13;2.55;;;;;;;13.75;69.66;93699.03;511720;29;1077;-46
2023/08/09 00:46:07;;;;;;;2.97;2.47;;;;;;;13.59;69.51;93670.63;511780;29;794;-46
2023/08/09 00:46:23;;;;;;;5.43;2.83;;;;;;;13.75;69.71;93691.44;511473;29;1926;-47
2023/08/09 00:46:39;;;;;;;5.88;2.85;;;;;;;13.75;70.04;93693.47;512204;28;932;-45
2023/08/09 00:46:55;;;;;;;2.53;2.33;;;;;;;13.74;69.85;93695.50;513536;28;897;-47
2023/08/09 00:47:10;;;;;;;2.60;2.40;;;;;;;13.75;69.83;93696.25;513780;28;784;-45
2023/08/09 00:47:26;;;;;;;2.83;2.63;;;;;;;13.68;69.82;93684.63;511620;29;940;-46
2023/08/09 00:47:41;;;;;;;2.80;2.60;;;;;;;13.74;69.82;93695.50;512234;28;963;-48
2023/08/09 00:47:58;;;;;;;2.70;2.50;;;;;;;13.74;69.47;93697.53;511678;29;1376;-45
2023/08/09 00:48:14;;;;;;;2.58;2.38;;;;;;;13.75;69.36;93704.56;511750;29;910;-46
2023/08/09 00:48:30;;;;;;;2.67;2.47;;;;;;;13.73;69.58;93688.47;511704;29;1021;-46
2023/08/09 00:48:45;;;;;;;2.70;2.50;;;;;;;13.74;69.71;93694.75;511667;29;892;-46
2023/08/09 00:49:00;;;;;;;2.50;2.30;;;;;;;13.72;69.89;93692.56;511686;28;840;-46
2023/08/09 00:49:17;;;;;;;2.58;2.38;;;;;;;13.75;69.91;93690.69;512297;28;825;-45
2023/08/09 00:49:32;;;;;;;2.67;2.47;;;;;;;13.73;70.04;93696.09;513636;28;1192;-47
2023/08/09 00:49:48;;;;;;;2.70;2.50;;;;;;;13.74;70.08;93689.22;513752;28;905;-46
2023/08/09 00:50:04;;;;;;;2.70;2.50;;;;;;;13.62;70.09;93675.78;511758;28;859;-47
2023/08/09 00:50:19;;;;;;;2.65;2.45;;;;;;;13.73;70.16;93691.25;509802;28;815;-47
2023/08/09 00:50:35;;;;;;;2.43;2.33;;;;;;;13.75;70.08;93693.47;509756;28;806;-45
2023/08/09 00:50:50;;;;;;;2.60;2.40;;;;;;;13.74;69.81;93692.72;509741;29;860;-47
2023/08/09 00:51:06;;;;;;;2.73;2.53;;;;;;;13.74;69.74;93689.22;508788;29;1655;-47
2023/08/09 00:51:21;;;;;;;2.80;2.60;;;;;;;13.73;69.70;93691.25;507481;29;942;-47
2023/08/09 00:51:37;;;;;;;2.53;2.33;;;;;;;13.74;69.46;93692.00;507665;29;782;-46
2023/08/09 00:51:52;;;;;;;2.33;2.22;;;;;;;13.73;69.39;93696.09;508244;29;879;-46
2023/08/09 00:52:08;;;;;;;2.60;2.40;;;;;;;13.71;69.44;93696.63;510261;29;833;-45
2023/08/09 00:52:25;;;;;;;2.73;2.53;;;;;;;13.63;69.45;93682.81;511986;28;937;-46
2023/08/09 00:52:42;;;;;;;2.75;2.25;;;;;;;13.51;69.52;93667.16;511827;29;946;-46
2023/08/09 00:52:58;;;;;;;2.70;2.30;;;;;;;13.68;69.45;93697.75;508486;29;1132;-46
2023/08/09 00:53:16;;;;;;;2.65;2.45;;;;;;;13.68;69.41;93695.75;508051;29;1149;-46
2023/08/09 00:53:31;;;;;;;2.58;2.38;;;;;;;13.67;69.17;93687.97;509692;29;917;-46
2023/08/09 00:53:48;;;;;;;2.30;2.10;;;;;;;13.60;69.32;93683.19;509777;29;784;-47
2023/08/09 00:54:03;;;;;;;2.33;2.22;;;;;;;13.66;69.43;93692.03;509221;29;1483;-45
2023/08/09 00:54:20;;;;;;;2.47;2.37;;;;;;;13.66;69.60;93687.22;509129;29;1197;-45
2023/08/09 00:54:38;;;;;;;2.65;2.45;;;;;;;13.65;69.32;93688.53;509681;29;826;-45
2023/08/09 00:54:54;;;;;;;2.40;2.20;;;;;;;13.65;69.25;93693.34;511184;29;983;-46
2023/08/09 00:55:09;;;;;;;2.20;2.10;;;;;;;13.64;69.29;93689.09;512429;28;958;-46
2023/08/09 00:55:25;;;;;;;2.50;2.30;;;;;;;13.59;69.30;93688.00;511586;29;1052;-47
2023/08/09 00:55:40;;;;;;;2.87;2.67;;;;;;;13.63;69.29;93693.16;509754;29;816;-46
2023/08/09 00:55:56;;;;;;;2.90;2.60;;;;;;;13.52;69.31;93674.91;509796;29;785;-46
2023/08/09 00:56:11;;;;;;;2.57;2.37;;;;;;;13.62;69.36;93691.69;510168;29;889;-45
2023/08/09 00:56:27;;;;;;;2.58;2.38;;;;;;;13.53;69.17;93670.84;511621;29;881;-45
2023/08/09 00:56:43;;;;;;;2.53;2.33;;;;;;;13.62;69.38;93695.19;511690;29;786;-45
2023/08/09 00:56:59;;;;;;;2.42;2.22;;;;;;;13.61;69.37;93693.00;509670;29;1112;-46
2023/08/09 00:57:15;;;;;;;2.53;2.33;;;;;;;13.61;69.49;93690.97;510236;29;876;-46
2023/08/09 00:57:30;;;;;;;2.70;2.50;;;;;;;13.61;69.57;93690.22;511528;28;1043;-46
2023/08/09 00:57:47;;;;;;;2.97;2.67;;;;;;;13.60;69.47;93689.47;511700;29;933;-46
2023/08/09 00:58:03;;;;;;;3.28;2.60;;;;;;;13.53;69.45;93673.63;509782;29;889;-46
2023/08/09 00:58:18;;;;;;;2.60;2.28;;;;;;;13.61;69.62;93690.22;509711;29;801;-46
2023/08/09 00:58:34;;;;;;;2.20;2.07;;;;;;;13.51;69.44;93675.47;509682;29;1068;-46
2023/08/09 00:58:49;;;;;;;2.13;2.03;;;;;;;13.59;69.35;93682.47;509783;29;774;-47
2023/08/09 00:59:05;;;;;;;2.40;2.20;;;;;;;13.59;69.40;93687.28;509757;29;790;-46
2023/08/09 00:59:20;;;;;;;2.73;2.40;;;;;;;13.58;69.60;93686.53;509884;29;1265;-47
2023/08/09 00:59:35;;;;;;;2.70;2.50;;;;;;;13.57;69.52;93685.06;512088;28;904;-46
2023/08/09 00:59:51;;;;;;;2.50;2.30;;;;;;;13.56;69.43;93688.38;513582;28;944;-45
2023/08/09 01:00:09;;;;;;;2.47;2.27;;;;;;;13.56;69.63;93693.94;511991;28;1443;-47
2023/08/09 01:00:24;;;;;;;2.53;2.33;;;;;;;13.55;69.43;93682.13;512159;28;951;-46
2023/08/09 01:00:40;;;;;;;2.50;2.30;;;;;;;13.55;69.74;93693.22;511865;28;1040;-45
2023/08/09 01:00:55;;;;;;;2.57;2.37;;;;;;;13.54;69.74;93686.19;511950;28;1048;-47
2023/08/09 01:01:11;;;;;;;2.75;2.55;;;;;;;13.55;69.94;93684.16;513230;28;1536;-46
2023/08/09 01:01:27;;;;;;;2.75;2.55;;;;;;;13.47;69.98;93681.41;512694;28;906;-47
2023/08/09 01:01:42;;;;;;;2.87;2.67;;;;;;;13.53;69.91;93690.28;515713;28;804;-47
2023/08/09 01:01:58;;;;;;;2.70;2.50;;;;;;;13.54;69.80;93685.44;515637;28;1107;-45
2023/08/09 01:02:13;;;;;;;2.57;2.37;;;;;;;13.53;69.69;93683.97;515709;28;1587;-46
2023/08/09 01:02:29;;;;;;;2.40;2.20;;;;;;;13.53;69.50;93689.53;515605;28;1063;-47
2023/08/09 01:02:44;;;;;;;2.30;2.10;;;;;;;13.29;69.36;93651.34;515770;28;789;-46
2023/08/09 01:03:00;;;;;;;2.70;2.40;;;;;;;13.44;69.35;93679.03;515774;28;848;-45
2023/08/09 01:03:15;;;;;;;2.67;2.40;;;;;;;13.50;69.36;93687.88;515691;28;848;-45
2023/08/09 01:03:31;;;;;;;2.45;2.25;;;;;;;13.51;69.36;93694.91;515253;28;828;-46
2023/08/09 01:03:46;;;;;;;2.57;2.37;;;;;;;13.49;69.45;93689.19;513841;28;872;-47
2023/08/09 01:04:02;;;;;;;2.73;2.53;;;;;;;13.50;69.38;93694.16;513528;28;1438;-47
2023/08/09 01:04:17;;;;;;;2.55;2.35;;;;;;;13.50;69.50;93693.41;512295;28;829;-47
2023/08/09 01:04:33;;;;;;;2.40;2.20;;;;;;;13.42;69.63;93678.84;513655;28;829;-46
2023/08/09 01:04:48;;;;;;;2.40;2.20;;;;;;;13.50;69.79;93693.41;513673;28;948;-46
2023/08/09 01:05:04;;;;;;;2.50;2.30;;;;;;;13.47;69.73;93686.94;513710;28;795;-47
2023/08/09 01:05:23;;;;;;;2.43;2.23;;;;;;;13.48;69.88;93687.69;511580;28;1334;-46
2023/08/09 01:05:56;;;;;;;2.50;2.30;;;;;;;13.49;69.82;93689.91;511554;28;1103;-46
2023/08/09 01:06:23;;;;;;;2.55;2.35;;;;;;;13.49;69.79;93689.91;511256;28;943;-47
2023/08/09 01:06:50;;;;;;;2.50;2.30;;;;;;;13.47;69.58;93698.03;513425;28;877;-46
2023/08/09 01:07:24;;;;;;;2.60;2.40;;;;;;;13.48;69.40;93693.25;510737;29;1163;-46
2023/08/09 01:07:49;;;;;;;2.50;2.30;;;;;;;13.47;69.47;93695.25;509701;29;1019;-45
2023/08/09 01:08:27;;;;;;;2.78;2.58;;;;;;;13.46;69.48;93693.06;507746;29;900;-45
2023/08/09 01:08:57;;;;;;;2.83;2.63;;;;;;;13.46;69.67;93693.81;507749;29;937;-46
2023/08/09 01:09:18;;;;;;;2.60;2.40;;;;;;;13.46;69.68;93696.59;507800;29;841;-46
2023/08/09 01:10:08;;;;;;;2.60;2.40;;;;;;;13.44;69.50;93690.84;510392;29;1055;-48
2023/08/09 01:10:34;;;;;;;2.45;2.25;;;;;;;13.44;69.66;93693.63;513635;28;868;-45
2023/08/09 01:11:09;;;;;;;2.40;2.30;;;;;;;13.43;69.45;93692.16;511741;28;852;-46
2023/08/09 01:11:35;;;;;;;2.70;2.50;;;;;;;13.42;69.16;93698.25;511484;28;1169;-45
2023/08/09 01:11:55;;;;;;;2.40;2.20;;;;;;;13.36;68.95;93683.88;509585;29;1576;-46
2023/08/09 01:12:13;;;;;;;2.25;2.15;;;;;;;13.41;69.09;93694.75;509723;29;924;-46
2023/08/09 01:12:31;;;;;;;2.40;2.20;;;;;;;13.41;68.93;93691.22;509584;29;907;-45
2023/08/09 01:13:00;;;;;;;2.50;2.30;;;;;;;13.39;68.90;93689.03;509226;29;952;-45
2023/08/09 01:13:19;;;;;;;2.47;2.28;;;;;;;13.40;68.83;93692.53;507722;29;983;-47
2023/08/09 01:13:37;;;;;;;2.42;2.22;;;;;;;13.32;68.74;93681.47;507671;29;857;-46
2023/08/09 01:13:53;;;;;;;2.45;2.25;;;;;;;13.39;68.87;93696.59;507825;29;884;-46
2023/08/09 01:14:11;;;;;;;2.42;2.22;;;;;;;13.39;68.69;93688.28;507391;29;1048;-46
2023/08/09 01:14:28;;;;;;;2.50;2.30;;;;;;;13.38;68.85;93689.59;508862;29;1716;-47
2023/08/09 01:14:46;;;;;;;2.28;2.08;;;;;;;13.39;69.37;93691.06;511006;29;901;-46
2023/08/09 01:15:03;;;;;;;2.45;2.25;;;;;;;13.26;69.39;93672.63;509810;29;834;-45
2023/08/09 01:15:20;;;;;;;2.60;2.40;;;;;;;13.28;69.39;93674.84;509761;29;1606;-46
2023/08/09 01:15:36;;;;;;;2.65;2.45;;;;;;;13.40;69.56;93692.53;509640;29;888;-45
2023/08/09 01:15:52;;;;;;;2.80;2.60;;;;;;;13.39;69.63;93691.78;509787;29;899;-46
2023/08/09 01:16:08;;;;;;;2.67;2.47;;;;;;;13.40;69.70;93689.78;509604;29;1211;-47
2023/08/09 01:16:25;;;;;;;2.55;2.35;;;;;;;13.40;69.62;93689.78;509092;29;913;-46
2023/08/09 01:16:40;;;;;;;2.80;2.60;;;;;;;13.39;69.56;93691.78;508935;29;964;-47
2023/08/09 01:16:57;;;;;;;2.80;2.60;;;;;;;13.39;69.45;93694.56;509728;29;848;-46
2023/08/09 01:17:14;;;;;;;2.50;2.30;;;;;;;13.39;69.40;93691.78;509790;29;1764;-45
2023/08/09 01:17:31;;;;;;;2.50;2.30;;;;;;;13.38;69.24;93695.84;509177;29;1079;-46
2023/08/09 01:17:51;;;;;;;2.47;2.28;;;;;;;13.37;69.24;93693.66;509175;29;861;-46
2023/08/09 01:18:08;;;;;;;2.78;2.58;;;;;;;13.36;69.21;93697.75;507780;29;1071;-47
2023/08/09 01:18:25;;;;;;;2.63;2.42;;;;;;;13.35;69.08;93690.72;509919;29;976;-45
2023/08/09 01:18:42;;;;;;;2.45;2.25;;;;;;;13.36;69.09;93692.19;509754;29;945;-46
2023/08/09 01:18:58;;;;;;;2.90;2.70;;;;;;;13.33;69.02;93688.50;509786;29;823;-46
2023/08/09 01:19:32;;;;;;;3.00;2.80;;;;;;;13.34;69.00;93695.50;507785;29;1407;-46
2023/08/09 01:19:50;;;;;;;2.65;2.45;;;;;;;13.34;68.81;93689.25;509736;29;1161;-45
2023/08/09 01:20:11;;;;;;;2.70;2.50;;;;;;;13.35;69.02;93690.72;507685;29;869;-45
2023/08/09 01:20:26;;;;;;;2.55;2.30;;;;;;;13.27;68.96;93681.69;509686;29;898;-45